sensor_id;sensor_type;location;lat;lon;timestamp;temperature;humidity
38325;DHT22;24126;52.672;13.622;2023-03-11T00:02:18;6.90;77.10
38325;DHT22;24126;52.672;13.622;2023-03-11T00:04:45;6.90;77.10
38325;DHT22;24126;52.672;13.622;2023-03-11T00:07:13;6.90;77.20
38325;DHT22;24126;52.672;13.622;2023-03-11T00:09:40;6.90;77.10
38325;DHT22;24126;52.672;13.622;2023-03-11T00:12:07;6.90;77.10
38325;DHT22;24126;52.672;13.622;2023-03-11T00:14:34;6.90;77.10
38325;DHT22;24126;52.672;13.622;2023-03-11T00:17:01;6.90;77.80
38325;DHT22;24126;52.672;13.622;2023-03-11T00:19:28;6.90;77.00
38325;DHT22;24126;52.672;13.622;2023-03-11T00:21:55;6.90;77.00
38325;DHT22;24126;52.672;13.622;2023-03-11T00:24:22;6.90;76.80
38325;DHT22;24126;52.672;13.622;2023-03-11T00:26:49;6.80;76.90
38325;DHT22;24126;52.672;13.622;2023-03-11T00:29:17;6.80;76.80
38325;DHT22;24126;52.672;13.622;2023-03-11T00:31:44;6.80;76.90
38325;DHT22;24126;52.672;13.622;2023-03-11T00:34:11;6.70;77.00
38325;DHT22;24126;52.672;13.622;2023-03-11T00:36:38;6.70;77.10
38325;DHT22;24126;52.672;13.622;2023-03-11T00:39:05;6.70;77.10
38325;DHT22;24126;52.672;13.622;2023-03-11T00:41:33;6.70;77.10
38325;DHT22;24126;52.672;13.622;2023-03-11T00:44:00;6.60;77.10
38325;DHT22;24126;52.672;13.622;2023-03-11T00:46:29;6.60;77.10
38325;DHT22;24126;52.672;13.622;2023-03-11T00:48:57;6.60;77.10
38325;DHT22;24126;52.672;13.622;2023-03-11T00:51:24;6.60;77.10
38325;DHT22;24126;52.672;13.622;2023-03-11T00:53:51;6.60;77.10
38325;DHT22;24126;52.672;13.622;2023-03-11T00:56:18;6.60;77.20
38325;DHT22;24126;52.672;13.622;2023-03-11T00:58:45;6.60;77.20
38325;DHT22;24126;52.672;13.622;2023-03-11T01:01:14;6.50;77.20
38325;DHT22;24126;52.672;13.622;2023-03-11T01:03:41;6.50;77.20
38325;DHT22;24126;52.672;13.622;2023-03-11T01:06:10;6.60;77.30
38325;DHT22;24126;52.672;13.622;2023-03-11T01:08:38;6.50;77.20
38325;DHT22;24126;52.672;13.622;2023-03-11T01:11:05;6.50;77.30
38325;DHT22;24126;52.672;13.622;2023-03-11T01:13:33;6.50;77.30
38325;DHT22;24126;52.672;13.622;2023-03-11T01:16:00;6.40;77.30
38325;DHT22;24126;52.672;13.622;2023-03-11T01:18:27;6.40;77.40
38325;DHT22;24126;52.672;13.622;2023-03-11T01:20:55;6.40;77.50
38325;DHT22;24126;52.672;13.622;2023-03-11T01:23:22;6.40;77.40
38325;DHT22;24126;52.672;13.622;2023-03-11T01:25:49;6.40;77.60
38325;DHT22;24126;52.672;13.622;2023-03-11T01:28:16;6.40;77.60
38325;DHT22;24126;52.672;13.622;2023-03-11T01:30:43;6.40;77.70
38325;DHT22;24126;52.672;13.622;2023-03-11T01:33:15;6.40;77.70
38325;DHT22;24126;52.672;13.622;2023-03-11T01:35:42;6.30;77.70
38325;DHT22;24126;52.672;13.622;2023-03-11T01:38:10;6.30;77.80
38325;DHT22;24126;52.672;13.622;2023-03-11T01:40:39;6.30;77.80
38325;DHT22;24126;52.672;13.622;2023-03-11T01:48:25;6.30;78.00
38325;DHT22;24126;52.672;13.622;2023-03-11T01:50:52;6.30;78.10
38325;DHT22;24126;52.672;13.622;2023-03-11T01:53:20;6.30;78.00
38325;DHT22;24126;52.672;13.622;2023-03-11T01:55:48;6.30;78.10
38325;DHT22;24126;52.672;13.622;2023-03-11T01:58:25;6.30;78.10
38325;DHT22;24126;52.672;13.622;2023-03-11T02:00:54;6.20;78.00
38325;DHT22;24126;52.672;13.622;2023-03-11T02:03:32;6.20;78.10
38325;DHT22;24126;52.672;13.622;2023-03-11T02:06:00;6.20;78.20
38325;DHT22;24126;52.672;13.622;2023-03-11T02:08:28;6.20;78.20
38325;DHT22;24126;52.672;13.622;2023-03-11T02:10:59;6.20;78.20
38325;DHT22;24126;52.672;13.622;2023-03-11T02:13:28;6.20;78.40
38325;DHT22;24126;52.672;13.622;2023-03-11T02:15:55;6.20;78.30
38325;DHT22;24126;52.672;13.622;2023-03-11T02:18:25;6.20;78.20
38325;DHT22;24126;52.672;13.622;2023-03-11T02:23:23;6.20;78.30
38325;DHT22;24126;52.672;13.622;2023-03-11T02:25:58;6.20;78.40
38325;DHT22;24126;52.672;13.622;2023-03-11T02:28:26;6.20;78.50
38325;DHT22;24126;52.672;13.622;2023-03-11T02:30:54;6.20;78.40
38325;DHT22;24126;52.672;13.622;2023-03-11T02:33:23;6.20;78.50
38325;DHT22;24126;52.672;13.622;2023-03-11T02:35:51;6.20;78.50
38325;DHT22;24126;52.672;13.622;2023-03-11T02:38:18;6.10;78.40
38325;DHT22;24126;52.672;13.622;2023-03-11T02:40:49;6.10;78.40
38325;DHT22;24126;52.672;13.622;2023-03-11T02:43:33;6.10;78.60
38325;DHT22;24126;52.672;13.622;2023-03-11T02:46:03;6.10;78.50
38325;DHT22;24126;52.672;13.622;2023-03-11T02:48:31;6.10;78.80
38325;DHT22;24126;52.672;13.622;2023-03-11T02:51:00;6.10;79.40
38325;DHT22;24126;52.672;13.622;2023-03-11T02:53:29;6.10;78.70
38325;DHT22;24126;52.672;13.622;2023-03-11T02:55:58;6.10;78.60
38325;DHT22;24126;52.672;13.622;2023-03-11T02:58:25;6.10;78.60
38325;DHT22;24126;52.672;13.622;2023-03-11T03:00:52;6.10;78.60
38325;DHT22;24126;52.672;13.622;2023-03-11T03:03:19;6.10;78.60
38325;DHT22;24126;52.672;13.622;2023-03-11T03:05:47;6.10;78.60
38325;DHT22;24126;52.672;13.622;2023-03-11T03:08:14;6.10;78.60
38325;DHT22;24126;52.672;13.622;2023-03-11T03:10:41;6.10;78.50
38325;DHT22;24126;52.672;13.622;2023-03-11T03:13:08;6.20;78.60
38325;DHT22;24126;52.672;13.622;2023-03-11T03:15:35;6.20;78.50
38325;DHT22;24126;52.672;13.622;2023-03-11T03:18:02;6.20;78.50
38325;DHT22;24126;52.672;13.622;2023-03-11T03:20:30;6.20;78.40
38325;DHT22;24126;52.672;13.622;2023-03-11T03:22:59;6.20;78.40
38325;DHT22;24126;52.672;13.622;2023-03-11T03:25:30;6.20;78.50
38325;DHT22;24126;52.672;13.622;2023-03-11T03:28:01;6.20;78.30
38325;DHT22;24126;52.672;13.622;2023-03-11T03:30:30;6.20;78.30
38325;DHT22;24126;52.672;13.622;2023-03-11T03:32:58;6.30;78.30
38325;DHT22;24126;52.672;13.622;2023-03-11T03:35:26;6.20;78.30
38325;DHT22;24126;52.672;13.622;2023-03-11T03:38:04;6.20;78.20
38325;DHT22;24126;52.672;13.622;2023-03-11T03:40:31;6.20;78.20
38325;DHT22;24126;52.672;13.622;2023-03-11T03:43:02;6.20;78.20
38325;DHT22;24126;52.672;13.622;2023-03-11T03:45:30;6.20;78.30
38325;DHT22;24126;52.672;13.622;2023-03-11T03:47:57;6.20;78.40
38325;DHT22;24126;52.672;13.622;2023-03-11T03:50:26;6.20;78.40
38325;DHT22;24126;52.672;13.622;2023-03-11T03:52:55;6.20;78.40
38325;DHT22;24126;52.672;13.622;2023-03-11T03:55:22;6.20;78.40
38325;DHT22;24126;52.672;13.622;2023-03-11T03:57:50;6.20;78.40
38325;DHT22;24126;52.672;13.622;2023-03-11T04:00:20;6.20;78.30
38325;DHT22;24126;52.672;13.622;2023-03-11T04:02:53;6.20;78.40
38325;DHT22;24126;52.672;13.622;2023-03-11T04:05:27;6.20;78.40
38325;DHT22;24126;52.672;13.622;2023-03-11T04:07:55;6.20;78.40
38325;DHT22;24126;52.672;13.622;2023-03-11T04:10:22;6.30;78.80
38325;DHT22;24126;52.672;13.622;2023-03-11T04:12:50;6.30;78.90
38325;DHT22;24126;52.672;13.622;2023-03-11T04:15:18;6.40;78.70
38325;DHT22;24126;52.672;13.622;2023-03-11T04:17:45;6.40;78.50
38325;DHT22;24126;52.672;13.622;2023-03-11T04:20:13;6.50;78.20
38325;DHT22;24126;52.672;13.622;2023-03-11T04:22:43;6.50;78.00
38325;DHT22;24126;52.672;13.622;2023-03-11T04:25:10;6.40;77.90
38325;DHT22;24126;52.672;13.622;2023-03-11T04:27:38;6.40;77.90
38325;DHT22;24126;52.672;13.622;2023-03-11T04:30:08;6.40;78.10
38325;DHT22;24126;52.672;13.622;2023-03-11T04:32:35;6.40;78.00
38325;DHT22;24126;52.672;13.622;2023-03-11T04:35:04;6.40;78.10
38325;DHT22;24126;52.672;13.622;2023-03-11T04:37:31;6.40;78.00
38325;DHT22;24126;52.672;13.622;2023-03-11T04:39:59;6.40;77.90
38325;DHT22;24126;52.672;13.622;2023-03-11T04:42:26;6.40;78.10
38325;DHT22;24126;52.672;13.622;2023-03-11T04:44:54;6.30;78.10
38325;DHT22;24126;52.672;13.622;2023-03-11T04:47:24;6.30;78.00
38325;DHT22;24126;52.672;13.622;2023-03-11T04:49:51;6.30;78.10
38325;DHT22;24126;52.672;13.622;2023-03-11T04:52:21;6.30;78.00
38325;DHT22;24126;52.672;13.622;2023-03-11T04:54:49;6.30;78.20
38325;DHT22;24126;52.672;13.622;2023-03-11T04:57:16;6.30;78.10
38325;DHT22;24126;52.672;13.622;2023-03-11T04:59:44;6.30;78.10
38325;DHT22;24126;52.672;13.622;2023-03-11T05:02:13;6.30;78.10
38325;DHT22;24126;52.672;13.622;2023-03-11T05:04:47;6.30;78.20
38325;DHT22;24126;52.672;13.622;2023-03-11T05:07:15;6.30;78.00
38325;DHT22;24126;52.672;13.622;2023-03-11T05:09:42;6.30;78.00
38325;DHT22;24126;52.672;13.622;2023-03-11T05:12:11;6.30;78.00
38325;DHT22;24126;52.672;13.622;2023-03-11T05:14:39;6.30;78.00
38325;DHT22;24126;52.672;13.622;2023-03-11T05:17:07;6.30;78.00
38325;DHT22;24126;52.672;13.622;2023-03-11T05:19:35;6.30;77.80
38325;DHT22;24126;52.672;13.622;2023-03-11T05:22:09;6.30;77.90
38325;DHT22;24126;52.672;13.622;2023-03-11T05:24:37;6.30;78.00
38325;DHT22;24126;52.672;13.622;2023-03-11T05:27:04;6.30;78.00
38325;DHT22;24126;52.672;13.622;2023-03-11T05:29:33;6.30;78.00
38325;DHT22;24126;52.672;13.622;2023-03-11T05:32:01;6.30;78.10
38325;DHT22;24126;52.672;13.622;2023-03-11T05:34:28;6.30;78.10
38325;DHT22;24126;52.672;13.622;2023-03-11T05:36:55;6.30;78.10
38325;DHT22;24126;52.672;13.622;2023-03-11T05:39:23;6.30;78.10
38325;DHT22;24126;52.672;13.622;2023-03-11T05:41:50;6.30;78.00
38325;DHT22;24126;52.672;13.622;2023-03-11T05:44:18;6.30;78.10
38325;DHT22;24126;52.672;13.622;2023-03-11T05:46:45;6.30;78.10
38325;DHT22;24126;52.672;13.622;2023-03-11T05:49:13;6.30;78.00
38325;DHT22;24126;52.672;13.622;2023-03-11T05:51:40;6.30;78.10
38325;DHT22;24126;52.672;13.622;2023-03-11T05:54:08;6.30;78.10
38325;DHT22;24126;52.672;13.622;2023-03-11T05:56:41;6.30;78.10
38325;DHT22;24126;52.672;13.622;2023-03-11T05:59:09;6.30;78.10
38325;DHT22;24126;52.672;13.622;2023-03-11T06:01:37;6.40;78.10
38325;DHT22;24126;52.672;13.622;2023-03-11T06:04:06;6.40;77.90
38325;DHT22;24126;52.672;13.622;2023-03-11T06:06:33;6.40;77.80
38325;DHT22;24126;52.672;13.622;2023-03-11T06:09:01;6.40;77.70
38325;DHT22;24126;52.672;13.622;2023-03-11T06:11:28;6.50;77.70
38325;DHT22;24126;52.672;13.622;2023-03-11T06:13:56;6.50;77.60
38325;DHT22;24126;52.672;13.622;2023-03-11T06:16:25;6.50;77.50
38325;DHT22;24126;52.672;13.622;2023-03-11T06:18:57;6.50;77.20
38325;DHT22;24126;52.672;13.622;2023-03-11T06:21:26;6.50;77.20
38325;DHT22;24126;52.672;13.622;2023-03-11T06:23:54;6.50;77.10
38325;DHT22;24126;52.672;13.622;2023-03-11T06:26:22;6.60;77.20
38325;DHT22;24126;52.672;13.622;2023-03-11T06:28:50;6.50;77.10
38325;DHT22;24126;52.672;13.622;2023-03-11T06:31:19;6.50;77.10
38325;DHT22;24126;52.672;13.622;2023-03-11T06:33:47;6.50;77.20
38325;DHT22;24126;52.672;13.622;2023-03-11T06:36:15;6.50;77.10
38325;DHT22;24126;52.672;13.622;2023-03-11T06:38:43;6.50;77.10
38325;DHT22;24126;52.672;13.622;2023-03-11T06:41:11;6.60;77.20
38325;DHT22;24126;52.672;13.622;2023-03-11T06:43:38;6.60;77.10
38325;DHT22;24126;52.672;13.622;2023-03-11T06:46:16;6.60;77.10
38325;DHT22;24126;52.672;13.622;2023-03-11T06:48:44;6.70;77.10
38325;DHT22;24126;52.672;13.622;2023-03-11T06:51:13;6.70;76.80
38325;DHT22;24126;52.672;13.622;2023-03-11T06:53:41;6.70;76.70
38325;DHT22;24126;52.672;13.622;2023-03-11T06:56:12;6.70;76.60
38325;DHT22;24126;52.672;13.622;2023-03-11T06:58:45;6.70;76.60
38325;DHT22;24126;52.672;13.622;2023-03-11T07:01:23;6.70;76.50
38325;DHT22;24126;52.672;13.622;2023-03-11T07:03:53;6.70;76.70
38325;DHT22;24126;52.672;13.622;2023-03-11T07:06:22;6.70;76.70
38325;DHT22;24126;52.672;13.622;2023-03-11T07:08:52;6.70;76.70
38325;DHT22;24126;52.672;13.622;2023-03-11T07:11:20;6.70;77.30
38325;DHT22;24126;52.672;13.622;2023-03-11T07:13:50;6.70;76.70
38325;DHT22;24126;52.672;13.622;2023-03-11T07:16:20;6.70;76.70
38325;DHT22;24126;52.672;13.622;2023-03-11T07:18:48;6.70;76.40
38325;DHT22;24126;52.672;13.622;2023-03-11T07:21:17;6.70;76.20
38325;DHT22;24126;52.672;13.622;2023-03-11T07:23:45;6.60;76.30
38325;DHT22;24126;52.672;13.622;2023-03-11T07:26:14;6.60;76.50
38325;DHT22;24126;52.672;13.622;2023-03-11T07:28:42;6.60;76.30
38325;DHT22;24126;52.672;13.622;2023-03-11T07:31:11;6.60;76.80
38325;DHT22;24126;52.672;13.622;2023-03-11T07:33:38;6.70;76.70
38325;DHT22;24126;52.672;13.622;2023-03-11T07:36:07;6.90;76.40
38325;DHT22;24126;52.672;13.622;2023-03-11T07:38:34;7.20;75.30
38325;DHT22;24126;52.672;13.622;2023-03-11T07:41:01;7.30;74.60
38325;DHT22;24126;52.672;13.622;2023-03-11T07:43:28;7.40;74.30
38325;DHT22;24126;52.672;13.622;2023-03-11T07:46:01;7.60;74.40
38325;DHT22;24126;52.672;13.622;2023-03-11T07:48:28;7.80;74.00
38325;DHT22;24126;52.672;13.622;2023-03-11T07:50:59;7.90;72.80
38325;DHT22;24126;52.672;13.622;2023-03-11T07:53:26;7.90;72.70
38325;DHT22;24126;52.672;13.622;2023-03-11T07:55:56;7.80;72.60
38325;DHT22;24126;52.672;13.622;2023-03-11T07:58:24;7.80;72.60
38325;DHT22;24126;52.672;13.622;2023-03-11T08:00:51;7.80;72.50
38325;DHT22;24126;52.672;13.622;2023-03-11T08:03:19;7.80;72.90
38325;DHT22;24126;52.672;13.622;2023-03-11T08:05:46;8.00;73.30
38325;DHT22;24126;52.672;13.622;2023-03-11T08:08:13;8.30;72.80
38325;DHT22;24126;52.672;13.622;2023-03-11T08:10:40;8.60;73.00
38325;DHT22;24126;52.672;13.622;2023-03-11T08:13:07;9.10;72.10
38325;DHT22;24126;52.672;13.622;2023-03-11T08:15:35;9.40;70.60
38325;DHT22;24126;52.672;13.622;2023-03-11T08:18:03;9.50;69.60
38325;DHT22;24126;52.672;13.622;2023-03-11T08:20:31;9.50;68.80
38325;DHT22;24126;52.672;13.622;2023-03-11T08:22:58;9.60;68.40
38325;DHT22;24126;52.672;13.622;2023-03-11T08:25:25;9.50;67.90
38325;DHT22;24126;52.672;13.622;2023-03-11T08:27:52;9.60;69.20
38325;DHT22;24126;52.672;13.622;2023-03-11T08:30:19;10.00;68.60
38325;DHT22;24126;52.672;13.622;2023-03-11T08:32:46;10.40;67.60
38325;DHT22;24126;52.672;13.622;2023-03-11T08:35:14;10.70;66.10
38325;DHT22;24126;52.672;13.622;2023-03-11T08:37:41;11.00;65.50
38325;DHT22;24126;52.672;13.622;2023-03-11T08:40:08;11.10;64.30
38325;DHT22;24126;52.672;13.622;2023-03-11T08:42:36;11.10;64.10
38325;DHT22;24126;52.672;13.622;2023-03-11T08:45:03;10.90;63.80
38325;DHT22;24126;52.672;13.622;2023-03-11T08:47:32;10.80;64.00
38325;DHT22;24126;52.672;13.622;2023-03-11T08:49:59;10.70;64.90
38325;DHT22;24126;52.672;13.622;2023-03-11T08:52:26;10.70;64.30
38325;DHT22;24126;52.672;13.622;2023-03-11T08:54:53;10.80;65.00
38325;DHT22;24126;52.672;13.622;2023-03-11T08:57:20;10.80;64.20
38325;DHT22;24126;52.672;13.622;2023-03-11T08:59:48;10.80;64.50
38325;DHT22;24126;52.672;13.622;2023-03-11T09:02:15;10.90;65.30
38325;DHT22;24126;52.672;13.622;2023-03-11T09:04:42;11.20;64.70
38325;DHT22;24126;52.672;13.622;2023-03-11T09:07:10;11.40;63.70
38325;DHT22;24126;52.672;13.622;2023-03-11T09:09:37;11.40;62.20
38325;DHT22;24126;52.672;13.622;2023-03-11T09:12:04;11.20;62.30
38325;DHT22;24126;52.672;13.622;2023-03-11T09:14:32;11.20;63.70
38325;DHT22;24126;52.672;13.622;2023-03-11T09:17:00;11.30;63.40
38325;DHT22;24126;52.672;13.622;2023-03-11T09:19:27;11.30;62.60
38325;DHT22;24126;52.672;13.622;2023-03-11T09:21:54;11.30;63.10
38325;DHT22;24126;52.672;13.622;2023-03-11T09:24:22;11.40;62.60
38325;DHT22;24126;52.672;13.622;2023-03-11T09:26:49;11.70;62.40
38325;DHT22;24126;52.672;13.622;2023-03-11T09:29:16;11.80;62.30
38325;DHT22;24126;52.672;13.622;2023-03-11T09:31:43;11.90;62.30
38325;DHT22;24126;52.672;13.622;2023-03-11T09:34:11;12.10;61.00
38325;DHT22;24126;52.672;13.622;2023-03-11T09:36:41;12.10;60.40
38325;DHT22;24126;52.672;13.622;2023-03-11T09:39:09;12.00;60.30
38325;DHT22;24126;52.672;13.622;2023-03-11T09:41:39;11.90;59.80
38325;DHT22;24126;52.672;13.622;2023-03-11T09:54:55;11.20;63.80
38325;DHT22;24126;52.672;13.622;2023-03-11T09:57:33;11.40;62.20
38325;DHT22;24126;52.672;13.622;2023-03-11T10:00:03;11.50;62.00
38325;DHT22;24126;52.672;13.622;2023-03-11T10:02:38;11.70;62.00
38325;DHT22;24126;52.672;13.622;2023-03-11T10:05:25;11.80;61.40
38325;DHT22;24126;52.672;13.622;2023-03-11T10:08:15;12.10;61.70
38325;DHT22;24126;52.672;13.622;2023-03-11T10:10:49;12.40;60.30
38325;DHT22;24126;52.672;13.622;2023-03-11T10:13:20;12.60;60.10
38325;DHT22;24126;52.672;13.622;2023-03-11T10:21:26;12.90;58.00
38325;DHT22;24126;52.672;13.622;2023-03-11T10:27:21;12.20;58.30
38325;DHT22;24126;52.672;13.622;2023-03-11T10:29:29;11.80;59.10
38325;DHT22;24126;52.672;13.622;2023-03-11T10:34:39;11.20;60.20
38325;DHT22;24126;52.672;13.622;2023-03-11T10:37:12;11.00;61.30
38325;DHT22;24126;52.672;13.622;2023-03-11T10:39:47;10.80;62.00
38325;DHT22;24126;52.672;13.622;2023-03-11T10:42:15;10.80;62.30
38325;DHT22;24126;52.672;13.622;2023-03-11T10:44:43;10.70;62.70
38325;DHT22;24126;52.672;13.622;2023-03-11T10:47:12;10.70;62.50
38325;DHT22;24126;52.672;13.622;2023-03-11T10:49:42;10.70;62.40
38325;DHT22;24126;52.672;13.622;2023-03-11T10:52:09;10.50;61.90
38325;DHT22;24126;52.672;13.622;2023-03-11T10:54:37;10.40;62.00
38325;DHT22;24126;52.672;13.622;2023-03-11T10:57:26;10.30;62.70
38325;DHT22;24126;52.672;13.622;2023-03-11T10:59:57;10.20;63.10
38325;DHT22;24126;52.672;13.622;2023-03-11T11:07:42;10.50;62.60
38325;DHT22;24126;52.672;13.622;2023-03-11T11:10:17;10.40;62.50
38325;DHT22;24126;52.672;13.622;2023-03-11T11:12:55;10.30;62.10
38325;DHT22;24126;52.672;13.622;2023-03-11T11:15:27;10.20;62.10
38325;DHT22;24126;52.672;13.622;2023-03-11T11:17:56;10.00;62.40
38325;DHT22;24126;52.672;13.622;2023-03-11T11:20:24;9.90;63.00
38325;DHT22;24126;52.672;13.622;2023-03-11T11:22:56;9.80;63.40
38325;DHT22;24126;52.672;13.622;2023-03-11T11:27:58;9.80;64.30
38325;DHT22;24126;52.672;13.622;2023-03-11T11:30:26;9.90;64.60
38325;DHT22;24126;52.672;13.622;2023-03-11T11:32:53;10.10;64.20
38325;DHT22;24126;52.672;13.622;2023-03-11T11:35:22;10.20;63.80
38325;DHT22;24126;52.672;13.622;2023-03-11T11:37:53;10.30;63.70
38325;DHT22;24126;52.672;13.622;2023-03-11T11:40:25;10.50;63.70
38325;DHT22;24126;52.672;13.622;2023-03-11T11:42:58;10.70;63.00
38325;DHT22;24126;52.672;13.622;2023-03-11T11:47:57;10.70;61.70
38325;DHT22;24126;52.672;13.622;2023-03-11T11:50:27;10.60;62.40
38325;DHT22;24126;52.672;13.622;2023-03-11T11:53:02;10.50;62.40
38325;DHT22;24126;52.672;13.622;2023-03-11T11:55:31;10.60;63.20
38325;DHT22;24126;52.672;13.622;2023-03-11T11:57:58;10.70;62.90
38325;DHT22;24126;52.672;13.622;2023-03-11T12:00:30;10.80;62.50
38325;DHT22;24126;52.672;13.622;2023-03-11T12:05:30;11.10;61.70
38325;DHT22;24126;52.672;13.622;2023-03-11T12:15:59;11.60;59.90
38325;DHT22;24126;52.672;13.622;2023-03-11T12:18:34;11.60;59.70
38325;DHT22;24126;52.672;13.622;2023-03-11T12:21:17;11.50;59.40
38325;DHT22;24126;52.672;13.622;2023-03-11T12:26:25;11.40;60.30
38325;DHT22;24126;52.672;13.622;2023-03-11T12:31:20;11.30;60.50
38325;DHT22;24126;52.672;13.622;2023-03-11T12:33:57;11.20;60.40
38325;DHT22;24126;52.672;13.622;2023-03-11T12:36:28;11.00;61.10
38325;DHT22;24126;52.672;13.622;2023-03-11T12:38:56;10.90;60.90
38325;DHT22;24126;52.672;13.622;2023-03-11T12:46:17;10.50;61.60
38325;DHT22;24126;52.672;13.622;2023-03-11T12:48:45;10.30;62.20
38325;DHT22;24126;52.672;13.622;2023-03-11T13:05:15;10.10;63.60
38325;DHT22;24126;52.672;13.622;2023-03-11T13:12:42;10.20;63.70
38325;DHT22;24126;52.672;13.622;2023-03-11T13:18:01;10.50;63.10
38325;DHT22;24126;52.672;13.622;2023-03-11T13:23:08;10.60;62.60
38325;DHT22;24126;52.672;13.622;2023-03-11T13:25:36;10.70;62.30
38325;DHT22;24126;52.672;13.622;2023-03-11T13:30:37;10.80;61.50
38325;DHT22;24126;52.672;13.622;2023-03-11T13:33:15;10.80;61.30
38325;DHT22;24126;52.672;13.622;2023-03-11T13:41:26;10.70;60.70
38325;DHT22;24126;52.672;13.622;2023-03-11T13:43:53;10.60;61.20
38325;DHT22;24126;52.672;13.622;2023-03-11T13:46:25;10.60;61.00
38325;DHT22;24126;52.672;13.622;2023-03-11T13:48:56;10.50;61.10
38325;DHT22;24126;52.672;13.622;2023-03-11T13:51:31;10.50;62.00
38325;DHT22;24126;52.672;13.622;2023-03-11T13:54:03;10.50;61.60
38325;DHT22;24126;52.672;13.622;2023-03-11T13:56:31;10.50;61.50
38325;DHT22;24126;52.672;13.622;2023-03-11T13:59:16;10.50;61.10
38325;DHT22;24126;52.672;13.622;2023-03-11T14:01:56;10.50;61.20
38325;DHT22;24126;52.672;13.622;2023-03-11T14:04:29;10.40;61.20
38325;DHT22;24126;52.672;13.622;2023-03-11T14:06:57;10.40;60.60
38325;DHT22;24126;52.672;13.622;2023-03-11T14:09:25;10.30;60.60
38325;DHT22;24126;52.672;13.622;2023-03-11T14:11:53;10.30;60.40
38325;DHT22;24126;52.672;13.622;2023-03-11T14:16:54;10.20;60.80
38325;DHT22;24126;52.672;13.622;2023-03-11T14:19:21;10.20;60.90
38325;DHT22;24126;52.672;13.622;2023-03-11T14:21:49;10.20;61.10
38325;DHT22;24126;52.672;13.622;2023-03-11T14:24:17;10.10;61.00
38325;DHT22;24126;52.672;13.622;2023-03-11T14:26:45;10.10;60.90
38325;DHT22;24126;52.672;13.622;2023-03-11T14:29:17;10.00;61.00
38325;DHT22;24126;52.672;13.622;2023-03-11T14:31:45;9.90;61.10
38325;DHT22;24126;52.672;13.622;2023-03-11T14:34:13;9.80;61.20
38325;DHT22;24126;52.672;13.622;2023-03-11T14:39:56;9.70;60.90
38325;DHT22;24126;52.672;13.622;2023-03-11T14:44:31;9.60;60.40
38325;DHT22;24126;52.672;13.622;2023-03-11T14:49:52;9.50;60.80
38325;DHT22;24126;52.672;13.622;2023-03-11T14:52:24;9.50;61.00
38325;DHT22;24126;52.672;13.622;2023-03-11T14:54:56;9.40;60.90
38325;DHT22;24126;52.672;13.622;2023-03-11T14:57:46;9.40;60.50
38325;DHT22;24126;52.672;13.622;2023-03-11T15:00:13;9.40;60.80
38325;DHT22;24126;52.672;13.622;2023-03-11T15:02:55;9.30;60.20
38325;DHT22;24126;52.672;13.622;2023-03-11T15:05:34;9.20;60.20
38325;DHT22;24126;52.672;13.622;2023-03-11T15:08:03;9.20;60.60
38325;DHT22;24126;52.672;13.622;2023-03-11T15:10:32;9.20;60.70
38325;DHT22;24126;52.672;13.622;2023-03-11T15:13:22;9.20;61.00
38325;DHT22;24126;52.672;13.622;2023-03-11T15:15:56;9.10;61.20
38325;DHT22;24126;52.672;13.622;2023-03-11T15:18:26;9.10;61.60
38325;DHT22;24126;52.672;13.622;2023-03-11T15:21:14;9.10;61.50
38325;DHT22;24126;52.672;13.622;2023-03-11T15:23:46;9.10;61.30
38325;DHT22;24126;52.672;13.622;2023-03-11T15:28:51;9.00;60.90
38325;DHT22;24126;52.672;13.622;2023-03-11T15:33:46;8.90;60.40
38325;DHT22;24126;52.672;13.622;2023-03-11T15:36:29;8.80;60.20
38325;DHT22;24126;52.672;13.622;2023-03-11T15:39:09;8.80;60.30
38325;DHT22;24126;52.672;13.622;2023-03-11T15:41:37;8.70;60.40
38325;DHT22;24126;52.672;13.622;2023-03-11T15:44:04;8.70;60.10
38325;DHT22;24126;52.672;13.622;2023-03-11T15:46:32;8.60;60.30
38325;DHT22;24126;52.672;13.622;2023-03-11T15:49:00;8.60;60.30
38325;DHT22;24126;52.672;13.622;2023-03-11T15:51:27;8.60;60.00
38325;DHT22;24126;52.672;13.622;2023-03-11T15:53:54;8.60;60.00
38325;DHT22;24126;52.672;13.622;2023-03-11T15:56:21;8.50;60.00
38325;DHT22;24126;52.672;13.622;2023-03-11T15:58:49;8.50;60.30
38325;DHT22;24126;52.672;13.622;2023-03-11T16:01:17;8.50;60.70
38325;DHT22;24126;52.672;13.622;2023-03-11T16:03:48;8.50;60.20
38325;DHT22;24126;52.672;13.622;2023-03-11T16:06:16;8.40;60.10
38325;DHT22;24126;52.672;13.622;2023-03-11T16:08:43;8.40;60.20
38325;DHT22;24126;52.672;13.622;2023-03-11T16:11:11;8.40;60.00
38325;DHT22;24126;52.672;13.622;2023-03-11T16:13:38;8.40;60.20
38325;DHT22;24126;52.672;13.622;2023-03-11T16:16:05;8.30;60.00
38325;DHT22;24126;52.672;13.622;2023-03-11T16:18:32;8.30;59.90
38325;DHT22;24126;52.672;13.622;2023-03-11T16:21:00;8.30;59.60
38325;DHT22;24126;52.672;13.622;2023-03-11T16:23:30;8.20;59.70
38325;DHT22;24126;52.672;13.622;2023-03-11T16:25:58;8.20;59.80
38325;DHT22;24126;52.672;13.622;2023-03-11T16:28:25;8.20;59.80
38325;DHT22;24126;52.672;13.622;2023-03-11T16:30:52;8.10;59.70
38325;DHT22;24126;52.672;13.622;2023-03-11T16:33:19;8.10;60.20
38325;DHT22;24126;52.672;13.622;2023-03-11T16:35:46;8.10;59.50
38325;DHT22;24126;52.672;13.622;2023-03-11T16:38:13;8.10;59.50
38325;DHT22;24126;52.672;13.622;2023-03-11T16:40:41;8.10;59.60
38325;DHT22;24126;52.672;13.622;2023-03-11T16:43:10;8.00;59.60
38325;DHT22;24126;52.672;13.622;2023-03-11T16:45:37;8.00;59.60
38325;DHT22;24126;52.672;13.622;2023-03-11T16:48:04;8.00;59.70
38325;DHT22;24126;52.672;13.622;2023-03-11T16:50:32;8.00;59.70
38325;DHT22;24126;52.672;13.622;2023-03-11T16:52:59;7.90;59.70
38325;DHT22;24126;52.672;13.622;2023-03-11T16:55:26;7.90;59.80
38325;DHT22;24126;52.672;13.622;2023-03-11T16:57:54;7.90;59.80
38325;DHT22;24126;52.672;13.622;2023-03-11T17:00:22;7.80;59.70
38325;DHT22;24126;52.672;13.622;2023-03-11T17:02:50;7.70;59.70
38325;DHT22;24126;52.672;13.622;2023-03-11T17:05:17;7.70;60.00
38325;DHT22;24126;52.672;13.622;2023-03-11T17:07:44;7.60;59.90
38325;DHT22;24126;52.672;13.622;2023-03-11T17:10:11;7.60;60.30
38325;DHT22;24126;52.672;13.622;2023-03-11T17:12:38;7.60;60.80
38325;DHT22;24126;52.672;13.622;2023-03-11T17:15:05;7.50;60.80
38325;DHT22;24126;52.672;13.622;2023-03-11T17:17:33;7.50;61.00
38325;DHT22;24126;52.672;13.622;2023-03-11T17:20:00;7.40;61.20
38325;DHT22;24126;52.672;13.622;2023-03-11T17:22:27;7.40;61.30
38325;DHT22;24126;52.672;13.622;2023-03-11T17:24:54;7.30;61.40
38325;DHT22;24126;52.672;13.622;2023-03-11T17:27:21;7.30;61.40
38325;DHT22;24126;52.672;13.622;2023-03-11T17:29:48;7.20;61.60